createdAt,value
2018-12-23T00:02:15.771Z,101578.47
2018-12-23T00:04:41.848Z,101573.24
2018-12-23T00:07:07.925Z,101581.08
2018-12-23T00:09:34.223Z,101578.94
2018-12-23T00:12:00.314Z,101582.89
2018-12-23T00:14:26.361Z,101584.62
2018-12-23T00:16:52.562Z,101584.22
2018-12-23T00:19:18.641Z,101579.86
2018-12-23T00:21:44.674Z,101585.98
2018-12-23T00:24:10.879Z,101586.84
2018-12-23T00:26:36.958Z,101585.08
2018-12-23T00:29:02.990Z,101585.55
2018-12-23T00:31:29.101Z,101584.67
2018-12-23T00:33:55.145Z,101584.24
2018-12-23T00:36:21.184Z,101584.24
2018-12-23T00:38:47.492Z,101578.56
2018-12-23T00:41:13.523Z,101590.32
2018-12-23T00:43:39.593Z,101586.02
2018-12-23T00:46:05.756Z,101586.90
2018-12-23T00:48:38.728Z,101580.82
2018-12-23T00:51:04.793Z,101586.02
2018-12-23T00:53:30.975Z,101586.87
2018-12-23T00:55:57.044Z,101588.58
2018-12-23T00:58:23.134Z,101589.00
2018-12-23T01:00:49.269Z,101596.37
2018-12-23T01:03:15.277Z,101598.98
2018-12-23T01:05:41.382Z,101601.59
2018-12-23T01:08:07.657Z,101603.77
2018-12-23T01:10:33.669Z,101604.62
2018-12-23T01:12:59.809Z,101602.91
2018-12-23T01:15:26.147Z,101601.17
2018-12-23T01:17:52.244Z,101603.75
2018-12-23T01:20:18.299Z,101603.23
2018-12-23T01:22:44.603Z,101593.70
2018-12-23T01:25:10.633Z,101599.82
2018-12-23T01:27:36.655Z,101601.10
2018-12-23T01:30:04.180Z,101599.34
2018-12-23T01:32:30.203Z,101600.66
2018-12-23T01:34:56.267Z,101596.74
2018-12-23T01:37:22.481Z,101593.30
2018-12-23T01:39:48.525Z,101593.72
2018-12-23T01:42:14.619Z,101601.55
2018-12-23T01:44:40.834Z,101604.14
2018-12-23T01:47:06.898Z,101601.12
2018-12-23T01:49:32.911Z,101601.12
2018-12-23T01:51:59.224Z,101600.67
2018-12-23T01:54:25.311Z,101597.65
2018-12-23T01:56:51.494Z,101604.16
2018-12-23T01:59:17.726Z,101595.89
2018-12-23T02:01:43.749Z,101603.20
2018-12-23T02:04:09.832Z,101592.33
2018-12-23T02:06:36.054Z,101591.86
2018-12-23T02:09:03.767Z,101594.48
2018-12-23T02:11:29.824Z,101592.77
2018-12-23T02:17:23.490Z,101596.31
2018-12-23T02:19:49.804Z,101589.25
2018-12-23T02:22:15.879Z,101539.30
2018-12-23T02:24:42.147Z,101598.80
2018-12-23T02:27:08.594Z,101600.54
2018-12-23T02:29:34.605Z,101599.22
2018-12-23T02:32:00.673Z,101592.29
2018-12-23T02:34:27.045Z,101600.11
2018-12-23T02:36:53.116Z,101605.77
2018-12-23T02:39:19.296Z,101601.45
2018-12-23T02:41:45.665Z,101607.95
2018-12-23T02:44:11.715Z,101598.82
2018-12-23T02:46:37.751Z,101603.58
2018-12-23T02:49:04.158Z,101601.45
2018-12-23T02:51:30.193Z,101597.50
2018-12-23T02:53:56.229Z,101599.23
2018-12-23T02:56:22.437Z,101595.34
2018-12-23T02:58:48.473Z,101595.77
2018-12-23T03:01:14.517Z,101600.11
2018-12-23T03:03:40.750Z,101597.88
2018-12-23T03:06:06.999Z,101600.90
2018-12-23T03:08:33.047Z,101596.14
2018-12-23T03:10:59.286Z,101596.97
2018-12-23T03:13:25.413Z,101592.65
2018-12-23T03:15:51.462Z,101599.59
2018-12-23T03:18:17.764Z,101596.14
2018-12-23T03:20:43.973Z,101599.14
2018-12-23T03:23:09.985Z,101600.01
2018-12-23T03:25:36.267Z,101606.52
2018-12-23T03:28:02.639Z,101604.31
2018-12-23T03:30:28.771Z,101602.98
2018-12-23T03:32:55.056Z,101603.38
2018-12-23T03:35:21.125Z,101549.23
2018-12-23T03:37:47.149Z,101604.70
2018-12-23T03:40:13.287Z,101599.06
2018-12-23T03:42:39.477Z,101597.33
2018-12-23T03:45:05.703Z,101598.17
2018-12-23T03:47:32.087Z,101593.84
2018-12-23T03:49:58.148Z,101598.16
2018-12-23T03:52:24.207Z,101597.73
2018-12-23T03:54:50.585Z,101606.87
2018-12-23T03:57:16.759Z,101607.77
2018-12-23T03:59:42.777Z,101606.42
2018-12-23T04:02:08.890Z,101602.92
2018-12-23T04:04:34.966Z,101605.09
2018-12-23T04:07:01.159Z,101605.08
2018-12-23T04:09:27.558Z,101606.80
2018-12-23T04:11:53.596Z,101611.11
2018-12-23T04:14:19.639Z,101605.49
2018-12-23T04:16:45.834Z,101606.36
2018-12-23T04:19:11.894Z,101604.56
2018-12-23T04:21:38.145Z,101607.63
2018-12-23T04:24:04.440Z,101609.73
2018-12-23T04:26:30.493Z,101612.30
2018-12-23T04:28:56.522Z,101610.55
2018-12-23T04:31:22.864Z,101610.55
2018-12-23T04:33:48.891Z,101617.06
2018-12-23T04:36:14.939Z,101609.21
2018-12-23T04:38:41.278Z,101610.06
2018-12-23T04:41:07.426Z,101614.44
2018-12-23T04:43:33.492Z,101617.45
2018-12-23T04:45:59.860Z,101617.45
2018-12-23T04:48:26.013Z,101621.78
2018-12-23T04:50:52.099Z,101620.04
2018-12-23T04:53:18.530Z,101618.28
2018-12-23T04:55:44.706Z,101614.77
2018-12-23T04:58:10.742Z,101611.26
2018-12-23T05:00:37.005Z,101612.13
2018-12-23T05:03:03.040Z,101621.67
2018-12-23T05:05:29.194Z,101612.58
2018-12-23T05:07:55.413Z,101622.16
2018-12-23T05:10:21.472Z,101612.56
2018-12-23T05:12:47.601Z,101616.02
2018-12-23T05:15:13.860Z,101621.62
2018-12-23T05:17:39.916Z,101622.92
2018-12-23T05:20:05.971Z,101620.33
2018-12-23T05:22:32.303Z,101617.30
2018-12-23T05:24:58.352Z,101621.64
2018-12-23T05:27:24.408Z,101617.74
2018-12-23T05:29:50.600Z,101626.83
2018-12-23T05:32:16.666Z,101623.37
2018-12-23T05:34:42.719Z,101620.75
2018-12-23T05:37:09.018Z,101622.48
2018-12-23T05:39:35.066Z,101617.67
2018-12-23T05:42:01.251Z,101619.82
2018-12-23T05:44:27.608Z,101624.98
2018-12-23T05:46:53.658Z,101621.08
2018-12-23T05:49:19.718Z,101618.08
2018-12-23T05:51:45.996Z,101619.84
2018-12-23T05:54:12.029Z,101624.18
2018-12-23T05:56:38.082Z,101620.28
2018-12-23T05:59:04.409Z,101619.00
2018-12-23T06:01:30.444Z,101618.56
2018-12-23T06:03:56.480Z,101625.95
2018-12-23T06:06:22.703Z,101623.77
2018-12-23T06:08:48.756Z,101614.63
2018-12-23T06:11:15.003Z,101623.75
2018-12-23T06:13:41.277Z,101624.63
2018-12-23T06:16:07.402Z,101620.28
2018-12-23T06:18:33.456Z,101626.37
2018-12-23T06:20:59.654Z,101627.26
2018-12-23T06:23:25.784Z,101621.16
2018-12-23T06:25:51.845Z,101621.16
2018-12-23T06:28:18.170Z,101622.48
2018-12-23T06:30:44.198Z,101629.86
2018-12-23T06:33:10.241Z,101627.26
2018-12-23T06:35:36.487Z,101631.55
2018-12-23T06:38:02.793Z,101628.06
2018-12-23T06:40:28.931Z,101628.52
2018-12-23T06:42:55.223Z,101622.40
2018-12-23T06:45:21.280Z,101630.63
2018-12-23T06:47:47.434Z,101626.26
2018-12-23T06:50:13.780Z,101623.61
2018-12-23T06:52:39.931Z,101633.63
2018-12-23T06:55:06.064Z,101628.84
2018-12-23T06:57:32.296Z,101629.25
2018-12-23T06:59:58.339Z,101632.33
2018-12-23T07:02:24.412Z,101631.83
2018-12-23T07:04:50.719Z,101641.80
2018-12-23T07:07:18.788Z,101641.78
2018-12-23T07:09:44.800Z,101651.33
2018-12-23T07:12:10.985Z,101642.12
2018-12-23T07:14:37.152Z,101652.19
2018-12-23T07:17:03.303Z,101664.81
2018-12-23T07:19:29.430Z,101664.81
2018-12-23T07:21:55.478Z,101656.53
2018-12-23T07:24:21.712Z,101660.41
2018-12-23T07:26:48.066Z,101663.42
2018-12-23T07:29:14.316Z,101663.87
2018-12-23T07:31:40.463Z,101655.16
2018-12-23T07:34:06.661Z,101655.16
2018-12-23T07:36:32.727Z,101659.92
2018-12-23T07:38:58.855Z,101668.19
2018-12-23T07:41:25.120Z,101659.42
2018-12-23T07:43:51.176Z,101669.05
2018-12-23T07:46:17.300Z,101673.81
2018-12-23T07:48:43.552Z,101675.58
2018-12-23T07:51:09.607Z,101684.30
2018-12-23T07:53:35.764Z,101678.16
2018-12-23T07:56:02.047Z,101680.81
2018-12-23T07:58:28.076Z,101679.03
2018-12-23T08:00:54.249Z,101678.59
2018-12-23T08:03:20.374Z,101679.88
2018-12-23T08:05:46.630Z,101678.59
2018-12-23T08:08:12.791Z,101676.02
2018-12-23T08:10:39.064Z,101667.83
2018-12-23T08:13:05.229Z,101678.67
2018-12-23T08:15:31.278Z,101660.80
2018-12-23T08:17:57.492Z,101628.36
2018-12-23T08:20:23.552Z,101684.34
2018-12-23T08:22:49.623Z,101684.73
2018-12-23T08:25:15.982Z,101683.85
2018-12-23T08:27:42.028Z,101690.33
2018-12-23T08:30:08.190Z,101688.62
2018-12-23T08:32:34.417Z,101685.13
2018-12-23T08:35:00.434Z,101682.53
2018-12-23T08:37:26.554Z,101686.02
2018-12-23T08:39:52.891Z,101689.95
2018-12-23T08:42:18.908Z,101686.48
2018-12-23T08:44:44.971Z,101689.55
2018-12-23T08:47:11.189Z,101691.69
2018-12-23T08:49:37.331Z,101692.94
2018-12-23T08:52:03.468Z,101702.02
2018-12-23T08:54:29.694Z,101698.55
2018-12-23T08:56:55.857Z,101697.34
2018-12-23T08:59:21.872Z,101706.49
2018-12-23T09:01:48.171Z,101696.55
2018-12-23T09:04:14.262Z,101702.66
2018-12-23T09:06:40.291Z,101699.20
2018-12-23T09:09:06.639Z,101697.90
2018-12-23T09:11:32.694Z,101696.58
2018-12-23T09:13:58.747Z,101689.16
2018-12-23T09:16:25.015Z,101700.02
2018-12-23T09:18:51.070Z,101697.41
2018-12-23T09:21:17.305Z,101694.78
2018-12-23T09:23:43.605Z,101692.59
2018-12-23T09:26:09.656Z,101695.61
2018-12-23T09:28:35.674Z,101691.27
2018-12-23T09:31:01.991Z,101694.31
2018-12-23T09:33:28.246Z,101694.31
2018-12-23T09:35:54.420Z,101697.39
2018-12-23T09:38:20.718Z,101687.41
2018-12-23T09:40:46.761Z,101688.72
2018-12-23T09:43:14.833Z,101684.42
2018-12-23T09:45:41.030Z,101683.14
2018-12-23T09:48:07.252Z,101687.46
2018-12-23T09:50:33.439Z,101687.44
2018-12-23T09:52:59.590Z,101689.18
2018-12-23T09:55:25.672Z,101690.93
2018-12-23T09:57:51.705Z,101686.14
2018-12-23T10:00:17.934Z,101684.81
2018-12-23T10:02:43.989Z,101685.66
2018-12-23T10:05:10.023Z,101679.97
2018-12-23T10:07:36.255Z,101677.34
2018-12-23T10:10:04.010Z,101681.27
2018-12-23T10:12:30.067Z,101675.22
2018-12-23T10:14:57.048Z,101627.06
2018-12-23T10:17:23.232Z,101672.19
2018-12-23T10:19:49.373Z,101676.95
2018-12-23T10:22:15.699Z,101674.77
2018-12-23T10:24:41.933Z,101676.95
2018-12-23T10:27:08.060Z,101672.61
2018-12-23T10:29:34.350Z,101679.95
2018-12-23T10:32:00.526Z,101675.53
2018-12-23T10:34:26.751Z,101676.78
2018-12-23T10:36:52.968Z,101670.62
2018-12-23T10:39:19.015Z,101677.08
2018-12-23T10:41:45.050Z,101674.03
2018-12-23T10:44:11.372Z,101676.16
2018-12-23T10:46:37.550Z,101673.51
2018-12-23T10:49:03.709Z,101673.05
2018-12-23T10:51:30.022Z,101679.49
2018-12-23T10:53:56.064Z,101673.83
2018-12-23T10:56:22.266Z,101669.90
2018-12-23T10:58:48.559Z,101666.00
2018-12-23T11:01:14.991Z,101668.16
2018-12-23T11:03:41.035Z,101610.83
2018-12-23T11:06:07.338Z,101660.71
2018-12-23T11:08:33.431Z,101668.57
2018-12-23T11:10:59.457Z,101668.59
2018-12-23T11:13:25.706Z,101663.83
2018-12-23T11:15:51.745Z,101657.72
2018-12-23T11:18:17.787Z,101664.67
2018-12-23T11:20:43.999Z,101657.70
2018-12-23T11:23:10.004Z,101652.49
2018-12-23T11:25:36.155Z,101654.27
2018-12-23T11:28:02.587Z,101657.70
2018-12-23T11:30:28.771Z,101656.78
2018-12-23T11:32:54.847Z,101661.91
2018-12-23T11:35:20.992Z,101664.92
2018-12-23T11:37:47.123Z,101664.90
2018-12-23T11:40:13.315Z,101661.77
2018-12-23T11:42:39.568Z,101659.56
2018-12-23T11:45:05.813Z,101662.91
2018-12-23T11:47:31.862Z,101669.77
2018-12-23T11:49:58.234Z,101673.11
2018-12-23T11:52:24.369Z,101670.40
2018-12-23T11:54:50.389Z,101665.05
2018-12-23T11:57:16.661Z,101666.66
2018-12-23T11:59:42.778Z,101662.25
2018-12-23T12:02:15.273Z,101665.55
2018-12-23T12:04:37.097Z,101672.91
2018-12-23T12:07:03.152Z,101670.63
2018-12-23T12:09:29.203Z,101672.22
2018-12-23T12:11:55.420Z,101683.75
2018-12-23T12:14:21.579Z,101685.02
2018-12-23T12:16:47.737Z,101685.02
2018-12-23T12:19:13.933Z,101681.88
2018-12-23T12:21:40.074Z,101688.23
2018-12-23T12:24:06.130Z,101682.92
2018-12-23T12:26:32.427Z,101672.84
2018-12-23T12:28:58.549Z,101670.19
2018-12-23T12:31:24.664Z,101665.78
2018-12-23T12:33:50.850Z,101667.86
2018-12-23T12:36:16.906Z,101614.38
2018-12-23T12:38:43.056Z,101663.84
2018-12-23T12:41:09.281Z,101661.24
2018-12-23T12:43:35.429Z,101678.55
2018-12-23T12:46:01.505Z,101663.60
2018-12-23T12:48:27.870Z,101663.60
2018-12-23T12:50:53.912Z,101665.31
2018-12-23T12:53:20.216Z,101658.78
2018-12-23T12:55:46.506Z,101671.94
2018-12-23T12:58:12.580Z,101667.59
2018-12-23T13:00:38.661Z,101666.30
2018-12-23T13:03:04.948Z,101666.30
2018-12-23T13:05:31.000Z,101660.25
2018-12-23T13:07:57.169Z,101660.25
2018-12-23T13:10:23.477Z,101652.84
2018-12-23T13:12:49.569Z,101655.81
2018-12-23T13:15:15.618Z,101655.81
2018-12-23T13:17:41.824Z,101657.02
2018-12-23T13:20:07.893Z,101662.64
2018-12-23T13:22:34.066Z,101661.28
2018-12-23T13:25:00.444Z,101652.84
2018-12-23T13:27:26.485Z,101652.84
2018-12-23T13:29:52.553Z,101661.03
2018-12-23T13:32:18.701Z,101655.56
2018-12-23T13:34:44.857Z,101655.56
2018-12-23T13:37:10.911Z,101653.30
2018-12-23T13:39:37.312Z,101666.12
2018-12-23T13:42:07.169Z,101666.12
2018-12-23T13:44:59.968Z,101661.53
2018-12-23T13:47:38.971Z,101661.53
2018-12-23T13:50:25.412Z,101666.83
2018-12-23T13:53:01.262Z,101666.83
2018-12-23T13:55:33.970Z,101662.75
2018-12-23T13:58:23.388Z,101660.81
2018-12-23T14:00:59.231Z,101660.81
2018-12-23T14:03:44.225Z,101666.53
2018-12-23T14:06:22.949Z,101666.53
2018-12-23T14:08:58.697Z,101659.94
2018-12-23T14:11:34.604Z,101658.11
2018-12-23T14:14:00.676Z,101652.77
2018-12-23T14:16:26.731Z,101651.31
2018-12-23T14:18:52.944Z,101651.31
2018-12-23T14:21:19.003Z,101651.11
2018-12-23T14:23:45.027Z,101650.47
2018-12-23T14:26:11.373Z,101651.27
2018-12-23T14:28:37.502Z,101654.14
2018-12-23T14:31:03.675Z,101645.92
2018-12-23T14:33:29.890Z,101642.80
2018-12-23T14:35:55.930Z,101647.37
2018-12-23T14:38:21.997Z,101647.37
2018-12-23T14:40:48.216Z,101653.72
2018-12-23T14:43:14.304Z,101646.71
2018-12-23T14:45:40.367Z,101650.03
2018-12-23T14:48:06.838Z,101647.75
2018-12-23T14:50:32.881Z,101651.06
2018-12-23T14:52:58.984Z,101648.34
2018-12-23T14:55:25.280Z,101648.12
2018-12-23T14:57:51.323Z,101644.99
2018-12-23T15:00:17.465Z,101648.78
2018-12-23T15:02:43.675Z,101642.72
2018-12-23T15:05:09.753Z,101647.45
2018-12-23T15:07:35.796Z,101635.23
2018-12-23T15:10:02.290Z,101635.62
2018-12-23T15:12:28.326Z,101628.58
2018-12-23T15:14:54.355Z,101621.09
2018-12-23T15:17:20.775Z,101627.81
2018-12-23T15:19:46.791Z,101619.97
2018-12-23T15:22:12.848Z,101625.50
2018-12-23T15:24:39.018Z,101622.82
2018-12-23T15:27:05.102Z,101627.50
2018-12-23T15:29:31.145Z,101627.80
2018-12-23T15:31:57.552Z,101633.34
2018-12-23T15:34:23.691Z,101632.79
2018-12-23T15:36:49.822Z,101623.60
2018-12-23T15:39:16.184Z,101628.27
2018-12-23T15:41:42.287Z,101623.75
2018-12-23T15:44:08.609Z,101625.34
2018-12-23T15:46:34.732Z,101625.70
2018-12-23T15:49:00.782Z,101620.84
2018-12-23T15:51:27.050Z,101616.36
2018-12-23T15:53:53.270Z,101616.27
2018-12-23T15:56:19.332Z,101611.91
2018-12-23T15:58:45.352Z,101612.24
2018-12-23T16:01:11.688Z,101613.84
2018-12-23T16:03:37.716Z,101607.54
2018-12-23T16:06:03.848Z,101604.36
2018-12-23T16:08:30.158Z,101616.73
2018-12-23T16:10:56.189Z,101614.99
2018-12-23T16:13:22.221Z,101609.73
2018-12-23T16:15:48.433Z,101622.44
2018-12-23T16:18:14.531Z,101623.02
2018-12-23T16:20:40.575Z,101626.09
2018-12-23T16:23:06.904Z,101621.45
2018-12-23T16:25:33.054Z,101614.91
2018-12-23T16:27:59.195Z,101608.50
2018-12-23T16:30:25.562Z,101613.72
2018-12-23T16:32:51.684Z,101609.89
2018-12-23T16:35:17.710Z,101610.70
2018-12-23T16:37:44.004Z,101608.84
2018-12-23T16:40:10.456Z,101610.98
2018-12-23T16:42:36.544Z,101598.88
2018-12-23T16:45:04.181Z,101597.59
2018-12-23T16:47:30.201Z,101599.26
2018-12-23T16:49:56.281Z,101593.99
2018-12-23T16:52:22.497Z,101593.00
2018-12-23T16:54:48.515Z,101593.78
2018-12-23T16:57:14.664Z,101594.59
2018-12-23T16:59:40.894Z,101587.68
2018-12-23T17:02:07.049Z,101594.08
2018-12-23T17:04:33.056Z,101588.81
2018-12-23T17:06:59.494Z,101593.97
2018-12-23T17:09:25.533Z,101585.34
2018-12-23T17:11:51.590Z,101590.10
2018-12-23T17:14:17.801Z,101586.63
2018-12-23T17:16:44.881Z,101584.89
2018-12-23T17:19:10.944Z,101578.28
2018-12-23T17:21:37.267Z,101575.89
2018-12-23T17:24:03.423Z,101585.11
2018-12-23T17:26:29.453Z,101579.73
2018-12-23T17:28:55.546Z,101577.53
2018-12-23T17:31:21.869Z,101580.05
2018-12-23T17:33:47.908Z,101575.35
2018-12-23T17:36:13.987Z,101572.72
2018-12-23T17:38:40.382Z,101574.46
2018-12-23T17:41:06.406Z,101570.89
2018-12-23T17:43:32.438Z,101572.55
2018-12-23T17:45:58.742Z,101573.30
2018-12-23T17:48:24.819Z,101570.61
2018-12-23T17:50:50.947Z,101561.48
2018-12-23T17:53:17.156Z,101568.36
2018-12-23T17:55:43.252Z,101566.91
2018-12-23T17:58:09.278Z,101563.78
2018-12-23T18:00:35.897Z,101558.95
2018-12-23T18:03:01.949Z,101513.34
2018-12-23T18:05:28.073Z,101558.47
2018-12-23T18:07:54.261Z,101552.56
2018-12-23T18:10:24.959Z,101549.58
2018-12-23T18:12:48.489Z,101551.64
2018-12-23T18:15:14.663Z,101545.03
2018-12-23T18:17:40.835Z,101551.75
2018-12-23T18:20:07.068Z,101551.64
2018-12-23T18:22:33.530Z,101548.48
2018-12-23T18:24:59.568Z,101552.34
2018-12-23T18:27:25.587Z,101554.92
2018-12-23T18:29:51.911Z,101554.48
2018-12-23T18:32:17.944Z,101557.84
2018-12-23T18:34:43.966Z,101555.27
2018-12-23T18:37:10.317Z,101559.06
2018-12-23T18:39:36.325Z,101553.45
2018-12-23T18:42:02.487Z,101543.16
2018-12-23T18:44:28.790Z,101552.57
2018-12-23T18:46:55.023Z,101551.68
2018-12-23T18:49:21.037Z,101551.56
2018-12-23T18:51:47.393Z,101559.50
2018-12-23T18:54:13.516Z,101565.77
2018-12-23T18:56:39.549Z,101561.27
2018-12-23T18:59:05.804Z,101560.38
2018-12-23T19:01:32.260Z,101557.80
2018-12-23T19:03:58.289Z,101561.33
2018-12-23T19:06:24.722Z,101549.22
2018-12-23T19:08:59.433Z,101548.73
2018-12-23T19:11:55.212Z,101546.98
2018-12-23T19:14:59.803Z,101548.27
2018-12-23T19:17:29.724Z,101548.48
2018-12-23T19:20:11.744Z,101544.94
2018-12-23T19:23:05.654Z,101544.88
2018-12-23T19:25:59.917Z,101539.23
2018-12-23T19:28:29.956Z,101537.31
2018-12-23T19:31:08.984Z,101534.50
2018-12-23T19:33:39.071Z,101531.55
2018-12-23T19:36:11.938Z,101533.32
2018-12-23T19:38:42.088Z,101533.96
2018-12-23T19:41:28.806Z,101538.65
2018-12-23T19:43:58.893Z,101543.36
2018-12-23T19:46:46.682Z,101540.39
2018-12-23T19:49:19.392Z,101546.97
2018-12-23T19:52:12.936Z,101546.38
2018-12-23T19:54:51.436Z,101554.48
2018-12-23T19:57:24.528Z,101553.14
2018-12-23T20:00:12.865Z,101552.42
2018-12-23T20:03:00.616Z,101552.89
2018-12-23T20:05:54.856Z,101539.84
2018-12-23T20:08:57.767Z,101539.72
2018-12-23T20:11:46.017Z,101543.51
2018-12-23T20:14:33.925Z,101542.55
2018-12-23T20:17:21.862Z,101540.88
2018-12-23T20:19:54.564Z,101539.26
2018-12-23T20:22:33.353Z,101531.22
2018-12-23T20:25:11.971Z,101537.64
2018-12-23T20:27:50.964Z,101534.58
2018-12-23T20:30:23.595Z,101537.15
2018-12-23T20:33:12.887Z,101539.20
2018-12-23T20:36:10.873Z,101544.97
2018-12-23T20:39:14.087Z,101483.01
2018-12-23T20:42:06.737Z,101533.20
2018-12-23T20:44:42.391Z,101540.72
2018-12-23T20:47:18.010Z,101539.17
2018-12-23T20:50:05.693Z,101536.53
2018-12-23T20:52:50.002Z,101536.07
2018-12-23T20:55:32.038Z,101535.88
2018-12-23T20:58:10.604Z,101532.28
2018-12-23T21:00:58.809Z,101539.09
2018-12-23T21:03:28.635Z,101540.61
2018-12-23T21:06:18.305Z,101542.91
2018-12-23T21:08:54.107Z,101539.84
2018-12-23T21:11:29.858Z,101536.88
2018-12-23T21:14:17.820Z,101535.20
2018-12-23T21:16:59.815Z,101528.91
2018-12-23T21:19:50.518Z,101532.08
2018-12-23T21:22:26.295Z,101524.84
2018-12-23T21:25:17.379Z,101520.59
2018-12-23T21:27:53.422Z,101521.48
2018-12-23T21:30:42.799Z,101514.63
2018-12-23T21:33:38.508Z,101512.55
2018-12-23T21:36:11.095Z,101510.05
2018-12-23T21:38:57.504Z,101502.67
2018-12-23T21:41:33.231Z,101502.60
2018-12-23T21:44:09.103Z,101499.02
2018-12-23T21:47:10.611Z,101510.51
2018-12-23T21:49:52.427Z,101496.18
2018-12-23T21:52:56.861Z,101494.37
2018-12-23T21:55:29.920Z,101495.98
2018-12-23T21:58:05.799Z,101501.05
2018-12-23T22:00:44.714Z,101499.77
2018-12-23T22:03:31.979Z,101494.63
2018-12-23T22:06:14.353Z,101493.41
2018-12-23T22:08:59.057Z,101497.83
2018-12-23T22:11:38.041Z,101495.39
2018-12-23T22:14:04.082Z,101492.06
2018-12-23T22:16:30.113Z,101497.27
2018-12-23T22:18:56.352Z,101497.33
2018-12-23T22:21:22.365Z,101493.22
2018-12-23T22:23:48.425Z,101497.99
2018-12-23T22:26:14.790Z,101489.16
2018-12-23T22:28:40.894Z,101493.94
2018-12-23T22:31:06.938Z,101479.02
2018-12-23T22:33:33.180Z,101482.11
2018-12-23T22:35:59.223Z,101428.35
2018-12-23T22:38:25.247Z,101475.00
2018-12-23T22:40:51.671Z,101474.66
2018-12-23T22:43:17.800Z,101468.83
2018-12-23T22:45:43.844Z,101465.09
2018-12-23T22:48:10.174Z,101461.31
2018-12-23T22:50:36.216Z,101454.95
2018-12-23T22:53:02.246Z,101452.90
2018-12-23T22:55:28.562Z,101451.73
2018-12-23T22:57:54.759Z,101453.09
2018-12-23T23:00:22.900Z,101443.76
2018-12-23T23:02:49.175Z,101446.39
2018-12-23T23:05:15.925Z,101443.82
2018-12-23T23:07:41.951Z,101450.31
2018-12-23T23:10:08.193Z,101446.02
2018-12-23T23:12:34.209Z,101439.14
2018-12-23T23:15:00.273Z,101436.96
2018-12-23T23:17:26.563Z,101437.73
2018-12-23T23:19:52.603Z,101436.38
2018-12-23T23:22:18.745Z,101438.00
2018-12-23T23:24:45.012Z,101446.46
2018-12-23T23:27:11.179Z,101445.19
2018-12-23T23:29:37.237Z,101453.66
2018-12-23T23:32:03.608Z,101448.91
2018-12-23T23:34:29.637Z,101450.63
2018-12-23T23:36:55.686Z,101452.12
2018-12-23T23:39:22.007Z,101453.20
2018-12-23T23:41:48.187Z,101455.22
2018-12-23T23:44:14.227Z,101448.08
2018-12-23T23:46:40.487Z,101448.77
2018-12-23T23:49:06.557Z,101449.78
2018-12-23T23:51:32.621Z,101452.94
2018-12-23T23:53:58.824Z,101448.37
2018-12-23T23:56:25.004Z,101452.73
2018-12-23T23:58:51.023Z,101439.77
